createdAt,value
2022-10-03T00:01:33.460Z,98406.88
2022-10-03T00:04:13.285Z,98400.50
2022-10-03T00:07:22.986Z,98419.94
2022-10-03T00:10:11.439Z,98427.81
2022-10-03T00:13:00.123Z,98432.53
2022-10-03T00:16:00.278Z,98435.03
2022-10-03T00:19:03.906Z,98429.50
2022-10-03T00:21:57.505Z,98438.22
2022-10-03T00:24:59.139Z,98438.72
2022-10-03T00:27:55.876Z,98433.34
2022-10-03T00:30:24.896Z,98436.88
2022-10-03T00:33:03.437Z,98437.19
2022-10-03T00:36:35.152Z,98453.94
2022-10-03T00:39:44.400Z,98459.81
2022-10-03T00:42:36.950Z,98467.03
2022-10-03T00:45:39.525Z,98461.16
2022-10-03T00:48:14.991Z,98457.16
2022-10-03T00:51:08.879Z,98454.44
2022-10-03T00:54:15.787Z,98457.28
2022-10-03T00:57:16.468Z,98460.78
2022-10-03T00:59:47.895Z,98461.97
2022-10-03T01:02:39.870Z,98465.31
2022-10-03T01:05:13.477Z,98460.28
2022-10-03T01:08:37.872Z,98449.72
2022-10-03T01:11:42.688Z,98452.91
2022-10-03T01:14:34.076Z,98458.94
2022-10-03T01:17:28.962Z,98458.09
2022-10-03T01:20:15.282Z,98466.78
2022-10-03T01:23:32.061Z,98464.31
2022-10-03T01:26:40.224Z,98467.00
2022-10-03T01:30:05.922Z,98475.19
2022-10-03T01:33:05.542Z,98476.06
2022-10-03T01:36:03.441Z,98476.91
2022-10-03T01:38:53.775Z,98473.91
2022-10-03T01:42:01.048Z,98472.22
2022-10-03T01:44:43.466Z,98469.38
2022-10-03T01:47:30.527Z,98479.59
2022-10-03T01:50:13.048Z,98492.50
2022-10-03T01:53:04.784Z,98494.00
2022-10-03T01:55:41.692Z,98498.53
2022-10-03T01:58:23.672Z,98496.34
2022-10-03T02:01:09.670Z,98502.69
2022-10-03T02:03:54.990Z,98499.03
2022-10-03T02:07:11.493Z,98502.53
2022-10-03T02:09:45.393Z,98506.38
2022-10-03T02:12:45.600Z,98496.34
2022-10-03T02:15:28.340Z,98500.69
2022-10-03T02:18:24.210Z,98500.03
2022-10-03T02:21:18.936Z,98503.88
2022-10-03T02:23:49.475Z,98501.19
2022-10-03T02:26:48.289Z,98497.50
2022-10-03T02:29:54.433Z,98501.69
2022-10-03T02:33:03.141Z,98505.72
2022-10-03T02:36:01.971Z,98497.84
2022-10-03T02:38:41.331Z,98498.38
2022-10-03T02:41:43.021Z,98504.22
2022-10-03T02:44:52.221Z,98502.56
2022-10-03T02:47:44.283Z,98489.47
2022-10-03T02:50:52.747Z,98489.59
2022-10-03T02:53:48.451Z,98492.81
2022-10-03T02:56:58.464Z,98489.97
2022-10-03T03:00:05.354Z,98488.81
2022-10-03T03:03:06.080Z,98489.59
2022-10-03T03:05:58.417Z,98489.09
2022-10-03T03:09:18.109Z,98485.06
2022-10-03T03:12:23.535Z,98488.09
2022-10-03T03:15:12.216Z,98489.91
2022-10-03T03:18:04.416Z,98477.53
2022-10-03T03:20:54.455Z,98480.84
2022-10-03T03:23:43.177Z,98489.91
2022-10-03T03:26:43.112Z,98479.84
2022-10-03T03:29:55.834Z,98488.25
2022-10-03T03:32:57.210Z,98487.06
2022-10-03T03:36:07.656Z,98490.25
2022-10-03T03:39:06.772Z,98488.41
2022-10-03T03:42:03.703Z,98489.06
2022-10-03T03:45:07.887Z,98483.88
2022-10-03T03:48:06.174Z,98488.25
2022-10-03T03:51:29.458Z,98500.78
2022-10-03T03:54:41.727Z,98502.13
2022-10-03T03:57:24.378Z,98502.13
2022-10-03T04:00:01.260Z,98507.00
2022-10-03T04:02:43.653Z,98510.16
2022-10-03T04:05:42.016Z,98509.81
2022-10-03T04:08:38.633Z,98506.63
2022-10-03T04:11:24.020Z,98504.41
2022-10-03T04:14:21.072Z,98512.28
2022-10-03T04:17:28.405Z,98508.28
2022-10-03T04:20:31.374Z,98512.66
2022-10-03T04:23:45.911Z,98512.97
2022-10-03T04:26:41.708Z,98509.84
2022-10-03T04:29:12.477Z,98515.50
2022-10-03T04:32:20.985Z,98523.53
2022-10-03T04:35:26.588Z,98521.38
2022-10-03T04:38:05.971Z,98527.91
2022-10-03T04:41:08.940Z,98524.38
2022-10-03T04:44:17.051Z,98522.19
2022-10-03T04:46:56.877Z,98529.56
2022-10-03T04:49:50.160Z,98532.41
2022-10-03T04:52:44.913Z,98539.22
2022-10-03T04:55:38.485Z,98538.09
2022-10-03T04:58:20.591Z,98542.78
2022-10-03T05:01:17.544Z,98536.59
2022-10-03T05:04:19.192Z,98544.97
2022-10-03T05:07:10.994Z,98541.75
2022-10-03T05:10:07.313Z,98535.06
2022-10-03T05:12:57.144Z,98539.75
2022-10-03T05:15:33.898Z,98537.06
2022-10-03T05:18:14.481Z,98538.41
2022-10-03T05:20:53.493Z,98539.56
2022-10-03T05:23:30.082Z,98545.72
2022-10-03T05:26:43.987Z,98553.94
2022-10-03T05:29:36.133Z,98555.78
2022-10-03T05:32:26.162Z,98555.66
2022-10-03T05:35:29.361Z,98566.88
2022-10-03T05:38:15.988Z,98572.25
2022-10-03T05:41:26.364Z,98577.81
2022-10-03T05:44:44.143Z,98593.25
2022-10-03T05:47:40.394Z,98593.25
2022-10-03T05:50:44.916Z,98587.75
2022-10-03T05:53:43.441Z,98585.22
2022-10-03T05:56:58.128Z,98586.88
2022-10-03T05:59:43.285Z,98582.44
2022-10-03T06:02:45.055Z,98583.94
2022-10-03T06:05:27.777Z,98585.47
2022-10-03T06:08:41.907Z,98588.81
2022-10-03T06:11:47.546Z,98590.47
2022-10-03T06:14:24.561Z,98592.47
2022-10-03T06:17:13.064Z,98593.25
2022-10-03T06:19:40.825Z,98591.91
2022-10-03T06:22:33.362Z,98599.59
2022-10-03T06:25:26.065Z,98608.50
2022-10-03T06:28:18.379Z,98606.97
2022-10-03T06:31:19.981Z,98612.69
2022-10-03T06:34:24.729Z,98615.06
2022-10-03T06:37:23.699Z,98612.09
2022-10-03T06:40:19.299Z,98623.47
2022-10-03T06:43:13.554Z,98627.19
2022-10-03T06:46:25.506Z,98632.53
2022-10-03T06:49:27.487Z,98635.72
2022-10-03T06:52:36.304Z,98634.41
2022-10-03T06:55:23.088Z,98628.88
2022-10-03T06:59:05.549Z,98634.06
2022-10-03T07:01:59.475Z,98638.94
2022-10-03T07:05:19.465Z,98645.28
2022-10-03T07:08:36.305Z,98649.47
2022-10-03T07:11:46.964Z,98653.69
2022-10-03T07:14:42.765Z,98645.66
2022-10-03T07:18:06.856Z,98655.19
2022-10-03T07:20:58.877Z,98655.41
2022-10-03T07:23:35.492Z,98662.25
2022-10-03T07:26:27.975Z,98666.28
2022-10-03T07:29:18.080Z,98660.25
2022-10-03T07:31:50.086Z,98664.63
2022-10-03T07:35:10.600Z,98671.66
2022-10-03T07:38:37.511Z,98661.28
2022-10-03T07:41:17.028Z,98666.31
2022-10-03T07:44:10.036Z,98651.06
2022-10-03T07:46:41.627Z,98657.25
2022-10-03T07:49:47.425Z,98663.97
2022-10-03T07:52:39.492Z,98672.84
2022-10-03T07:55:40.215Z,98671.34
2022-10-03T07:58:26.386Z,98676.72
2022-10-03T08:01:31.312Z,98676.38
2022-10-03T08:04:36.813Z,98670.19
2022-10-03T08:07:45.899Z,98670.66
2022-10-03T08:10:47.563Z,98680.06
2022-10-03T08:13:52.879Z,98686.28
2022-10-03T08:16:51.671Z,98685.47
2022-10-03T08:20:01.284Z,98686.81
2022-10-03T08:23:00.269Z,98685.09
2022-10-03T08:26:17.410Z,98687.47
2022-10-03T08:29:06.577Z,98684.78
2022-10-03T08:32:04.684Z,98678.91
2022-10-03T08:35:25.169Z,98686.44
2022-10-03T08:38:33.624Z,98686.09
2022-10-03T08:41:29.235Z,98687.56
2022-10-03T08:44:32.134Z,98692.56
2022-10-03T08:47:45.233Z,98690.63
2022-10-03T08:50:49.329Z,98688.47
2022-10-03T08:53:50.994Z,98690.47
2022-10-03T08:56:54.087Z,98692.31
2022-10-03T08:59:45.872Z,98696.50
2022-10-03T09:03:28.217Z,98694.69
2022-10-03T09:06:24.406Z,98692.50
2022-10-03T09:09:50.544Z,98690.66
2022-10-03T09:12:57.997Z,98698.72
2022-10-03T09:15:53.649Z,98691.66
2022-10-03T09:18:41.607Z,98690.34
2022-10-03T09:21:36.963Z,98695.91
2022-10-03T09:24:58.116Z,98687.47
2022-10-03T09:28:25.878Z,98680.44
2022-10-03T09:32:09.315Z,98680.09
2022-10-03T09:35:20.335Z,98680.25
2022-10-03T09:38:44.960Z,98680.22
2022-10-03T09:41:39.277Z,98679.19
2022-10-03T09:44:42.917Z,98670.59
2022-10-03T09:48:02.132Z,98663.75
2022-10-03T09:50:47.039Z,98673.25
2022-10-03T09:53:38.082Z,98673.59
2022-10-03T09:56:44.341Z,98673.25
2022-10-03T09:59:34.248Z,98670.75
2022-10-03T10:02:50.870Z,98669.91
2022-10-03T10:05:28.045Z,98666.16
2022-10-03T10:08:49.050Z,98672.09
2022-10-03T10:11:44.197Z,98674.44
2022-10-03T10:14:36.701Z,98681.31
2022-10-03T10:17:49.624Z,98684.31
2022-10-03T10:20:43.634Z,98683.22
2022-10-03T10:23:42.480Z,98680.91
2022-10-03T10:27:03.622Z,98683.44
2022-10-03T10:30:01.214Z,98683.97
2022-10-03T10:32:56.182Z,98680.81
2022-10-03T10:35:54.765Z,98686.50
2022-10-03T10:38:30.107Z,98686.78
2022-10-03T10:41:21.799Z,98690.75
2022-10-03T10:44:16.771Z,98685.19
2022-10-03T10:47:14.639Z,98685.50
2022-10-03T10:50:33.915Z,98677.72
2022-10-03T10:53:57.975Z,98675.69
2022-10-03T10:57:06.048Z,98672.59
2022-10-03T11:00:19.191Z,98663.78
2022-10-03T11:03:01.828Z,98663.47
2022-10-03T11:05:56.928Z,98661.59
2022-10-03T11:08:40.060Z,98664.47
2022-10-03T11:11:53.064Z,98658.06
2022-10-03T11:14:57.795Z,98660.59
2022-10-03T11:18:12.200Z,98665.13
2022-10-03T11:21:01.105Z,98657.66
2022-10-03T11:24:23.364Z,98665.75
2022-10-03T11:27:15.440Z,98658.13
2022-10-03T11:30:13.190Z,98656.00
2022-10-03T11:32:55.554Z,98658.94
2022-10-03T11:36:14.844Z,98665.16
2022-10-03T11:39:05.936Z,98662.66
2022-10-03T11:42:02.773Z,98668.41
2022-10-03T11:44:32.901Z,98654.91
2022-10-03T11:48:13.196Z,98657.09
2022-10-03T11:51:03.343Z,98658.81
2022-10-03T11:54:03.767Z,98650.09
2022-10-03T11:56:49.826Z,98655.44
2022-10-03T11:59:34.579Z,98653.16
2022-10-03T12:02:51.878Z,98659.78
2022-10-03T12:06:35.802Z,98656.41
2022-10-03T12:09:46.742Z,98651.25
2022-10-03T12:12:37.933Z,98644.34
2022-10-03T12:15:42.624Z,98645.13
2022-10-03T12:18:52.569Z,98642.34
2022-10-03T12:21:53.611Z,98637.31
2022-10-03T12:24:41.427Z,98634.97
2022-10-03T12:27:40.307Z,98632.00
2022-10-03T12:30:21.603Z,98630.97
2022-10-03T12:33:39.333Z,98623.63
2022-10-03T12:36:16.854Z,98622.78
2022-10-03T12:39:07.685Z,98621.38
2022-10-03T12:42:02.998Z,98620.94
2022-10-03T12:45:16.492Z,98616.00
2022-10-03T12:48:13.286Z,98613.06
2022-10-03T12:51:04.214Z,98605.50
2022-10-03T12:53:46.795Z,98604.84
2022-10-03T12:56:46.607Z,98614.59
2022-10-03T12:59:24.167Z,98608.84
2022-10-03T13:01:54.682Z,98610.47
2022-10-03T13:04:47.794Z,98604.72
2022-10-03T13:07:39.090Z,98601.53
2022-10-03T13:10:35.077Z,98596.50
2022-10-03T13:13:23.245Z,98598.56
2022-10-03T13:16:14.477Z,98604.91
2022-10-03T13:18:56.184Z,98602.66
2022-10-03T13:21:55.863Z,98596.72
2022-10-03T13:24:48.631Z,98596.00
2022-10-03T13:27:40.295Z,98604.22
2022-10-03T13:30:18.596Z,98598.00
2022-10-03T13:32:59.233Z,98592.34
2022-10-03T13:36:02.921Z,98596.19
2022-10-03T13:39:14.160Z,98594.69
2022-10-03T13:42:03.543Z,98597.25
2022-10-03T13:44:36.992Z,98596.78
2022-10-03T13:47:55.720Z,98597.72
2022-10-03T13:50:31.145Z,98587.97
2022-10-03T13:53:48.941Z,98593.81
2022-10-03T13:56:48.305Z,98584.88
2022-10-03T13:59:27.939Z,98587.25
2022-10-03T14:02:14.938Z,98571.41
2022-10-03T14:05:16.533Z,98584.94
2022-10-03T14:08:06.512Z,98579.63
2022-10-03T14:10:49.386Z,98570.13
2022-10-03T14:13:37.500Z,98557.94
2022-10-03T14:16:22.880Z,98564.88
2022-10-03T14:19:12.933Z,98564.53
2022-10-03T14:22:00.883Z,98563.19
2022-10-03T14:24:46.470Z,98555.31
2022-10-03T14:28:28.195Z,98558.63
2022-10-03T14:31:35.496Z,98556.19
2022-10-03T14:34:41.422Z,98552.69
2022-10-03T14:37:26.876Z,98548.75
2022-10-03T14:40:13.560Z,98547.75
2022-10-03T14:43:05.946Z,98549.94
2022-10-03T14:45:57.633Z,98547.06
2022-10-03T14:48:39.212Z,98548.78
2022-10-03T14:51:20.158Z,98547.78
2022-10-03T14:54:07.374Z,98545.50
2022-10-03T14:56:44.746Z,98536.78
2022-10-03T14:59:35.549Z,98540.56
2022-10-03T15:02:29.108Z,98530.63
2022-10-03T15:05:17.656Z,98543.78
2022-10-03T15:07:47.181Z,98544.63
2022-10-03T15:10:22.877Z,98536.94
2022-10-03T15:13:03.524Z,98527.84
2022-10-03T15:15:39.574Z,98529.47
2022-10-03T15:18:14.683Z,98537.09
2022-10-03T15:20:45.592Z,98531.72
2022-10-03T15:23:33.361Z,98539.41
2022-10-03T15:26:02.096Z,98537.53
2022-10-03T15:28:53.638Z,98532.13
2022-10-03T15:31:38.539Z,98535.19
2022-10-03T15:34:30.713Z,98526.78
2022-10-03T15:37:07.930Z,98526.59
2022-10-03T15:39:43.946Z,98523.03
2022-10-03T15:42:31.496Z,98519.28
2022-10-03T15:45:03.088Z,98524.47
2022-10-03T15:47:40.115Z,98525.06
2022-10-03T15:50:25.411Z,98530.84
2022-10-03T15:53:36.215Z,98521.34
2022-10-03T15:56:19.729Z,98517.38
2022-10-03T15:58:55.513Z,98514.78
2022-10-03T16:01:42.226Z,98523.88
2022-10-03T16:04:21.394Z,98532.94
2022-10-03T16:07:28.955Z,98531.03
2022-10-03T16:10:14.755Z,98527.16
2022-10-03T16:13:07.914Z,98524.94
2022-10-03T16:16:14.391Z,98517.00
2022-10-03T16:19:02.933Z,98515.06
2022-10-03T16:21:54.610Z,98513.66
2022-10-03T16:24:58.363Z,98508.59
2022-10-03T16:27:31.409Z,98509.38
2022-10-03T16:30:11.254Z,98518.34
2022-10-03T16:33:09.343Z,98511.75
2022-10-03T16:35:58.809Z,98508.13
2022-10-03T16:39:01.632Z,98514.22
2022-10-03T16:41:44.044Z,98522.19
2022-10-03T16:44:39.780Z,98528.81
2022-10-03T16:47:09.264Z,98529.38
2022-10-03T16:50:03.288Z,98528.09
2022-10-03T16:52:38.318Z,98530.31
2022-10-03T16:55:32.556Z,98539.94
2022-10-03T16:58:08.562Z,98526.75
2022-10-03T17:01:25.901Z,98524.69
2022-10-03T17:04:43.320Z,98520.78
2022-10-03T17:07:25.065Z,98515.66
2022-10-03T17:09:59.279Z,98520.50
2022-10-03T17:12:37.283Z,98517.84
2022-10-03T17:15:09.476Z,98515.41
2022-10-03T17:18:01.997Z,98517.19
2022-10-03T17:20:51.124Z,98516.22
2022-10-03T17:23:39.685Z,98511.91
2022-10-03T17:26:29.492Z,98509.25
2022-10-03T17:29:34.425Z,98497.06
2022-10-03T17:32:22.132Z,98504.19
2022-10-03T17:35:49.914Z,98505.25
2022-10-03T17:38:50.082Z,98513.84
2022-10-03T17:41:56.497Z,98508.53
2022-10-03T17:45:06.867Z,98508.09
2022-10-03T17:47:58.096Z,98513.69
2022-10-03T17:50:31.756Z,98511.53
2022-10-03T17:53:02.510Z,98505.16
2022-10-03T17:55:55.764Z,98502.53
2022-10-03T17:58:29.592Z,98500.19
2022-10-03T18:01:06.947Z,98495.47
2022-10-03T18:04:04.589Z,98500.72
2022-10-03T18:06:57.390Z,98487.84
2022-10-03T18:09:40.532Z,98495.56
2022-10-03T18:12:42.306Z,98491.06
2022-10-03T18:15:22.775Z,98486.50
2022-10-03T18:18:17.849Z,98481.84
2022-10-03T18:20:53.273Z,98484.03
2022-10-03T18:23:53.663Z,98483.84
2022-10-03T18:26:57.861Z,98480.72
2022-10-03T18:29:37.072Z,98485.56
2022-10-03T18:32:10.901Z,98486.06
2022-10-03T18:34:44.721Z,98491.78
2022-10-03T18:37:40.965Z,98494.28
2022-10-03T18:40:42.221Z,98487.78
2022-10-03T18:43:36.169Z,98496.16
2022-10-03T18:46:15.180Z,98482.25
2022-10-03T18:49:37.556Z,98486.13
2022-10-03T18:52:22.044Z,98489.31
2022-10-03T18:55:01.529Z,98486.63
2022-10-03T18:57:37.881Z,98489.84
2022-10-03T19:00:33.852Z,98483.97
2022-10-03T19:03:03.104Z,98476.25
2022-10-03T19:05:49.065Z,98473.91
2022-10-03T19:08:34.477Z,98480.59
2022-10-03T19:11:11.699Z,98480.78
2022-10-03T19:13:58.948Z,98488.63
2022-10-03T19:16:58.171Z,98495.50
2022-10-03T19:19:41.711Z,98495.00
2022-10-03T19:22:16.160Z,98487.44
2022-10-03T19:24:59.069Z,98493.28
2022-10-03T19:28:01.469Z,98492.78
2022-10-03T19:30:32.409Z,98491.09
2022-10-03T19:33:08.232Z,98491.91
2022-10-03T19:35:44.976Z,98492.94
2022-10-03T19:38:23.207Z,98493.09
2022-10-03T19:41:23.211Z,98490.91
2022-10-03T19:43:51.826Z,98482.22
2022-10-03T19:46:37.678Z,98488.41
2022-10-03T19:49:27.820Z,98482.22
2022-10-03T19:52:32.076Z,98482.38
2022-10-03T19:55:39.530Z,98486.19
2022-10-03T19:58:24.727Z,98489.38
2022-10-03T20:00:54.911Z,98477.47
2022-10-03T20:03:52.470Z,98475.97
2022-10-03T20:06:36.149Z,98466.94
2022-10-03T20:09:26.159Z,98470.25
2022-10-03T20:12:08.487Z,98472.44
2022-10-03T20:14:41.903Z,98474.94
2022-10-03T20:17:24.002Z,98475.75
2022-10-03T20:20:10.027Z,98473.56
2022-10-03T20:22:38.040Z,98470.22
2022-10-03T20:25:20.538Z,98478.72
2022-10-03T20:27:54.420Z,98481.41
2022-10-03T20:30:35.926Z,98484.44
2022-10-03T20:33:05.051Z,98478.56
2022-10-03T20:35:53.899Z,98469.50
2022-10-03T20:38:41.144Z,98481.53
2022-10-03T20:41:47.665Z,98476.53
2022-10-03T20:44:45.910Z,98476.53
2022-10-03T20:47:39.131Z,98475.84
2022-10-03T20:50:43.488Z,98473.78
2022-10-03T20:53:26.588Z,98470.13
2022-10-03T20:56:07.056Z,98476.94
2022-10-03T20:58:42.316Z,98459.25
2022-10-03T21:01:23.131Z,98467.28
2022-10-03T21:04:14.905Z,98462.91
2022-10-03T21:07:00.643Z,98464.06
2022-10-03T21:09:54.029Z,98451.34
2022-10-03T21:12:31.976Z,98457.53
2022-10-03T21:15:29.815Z,98457.69
2022-10-03T21:17:58.926Z,98454.16
2022-10-03T21:20:39.229Z,98447.97
2022-10-03T21:23:22.959Z,98442.78
2022-10-03T21:25:55.392Z,98442.94
2022-10-03T21:28:32.299Z,98440.44
2022-10-03T21:31:35.546Z,98434.72
2022-10-03T21:34:44.084Z,98429.34
2022-10-03T21:38:16.512Z,98433.03
2022-10-03T21:41:16.245Z,98440.38
2022-10-03T21:44:17.031Z,98437.03
2022-10-03T21:47:11.460Z,98431.13
2022-10-03T21:49:58.169Z,98430.47
2022-10-03T21:52:54.772Z,98429.78
2022-10-03T21:55:53.527Z,98431.25
2022-10-03T21:58:51.510Z,98429.75
2022-10-03T22:02:26.619Z,98425.53
2022-10-03T22:05:11.727Z,98421.03
2022-10-03T22:07:42.790Z,98418.81
2022-10-03T22:10:36.205Z,98420.16
2022-10-03T22:13:09.697Z,98410.97
2022-10-03T22:15:51.575Z,98410.28
2022-10-03T22:18:21.835Z,98409.44
2022-10-03T22:21:22.643Z,98405.94
2022-10-03T22:24:03.606Z,98406.47
2022-10-03T22:26:42.118Z,98395.78
2022-10-03T22:29:39.689Z,98400.28
2022-10-03T22:32:22.438Z,98398.44
2022-10-03T22:35:20.731Z,98395.94
2022-10-03T22:37:49.202Z,98393.94
2022-10-03T22:40:17.442Z,98390.06
2022-10-03T22:42:52.661Z,98392.88
2022-10-03T22:45:24.516Z,98386.19
2022-10-03T22:47:57.785Z,98382.84
2022-10-03T22:50:32.415Z,98381.66
2022-10-03T22:53:02.977Z,98385.50
2022-10-03T22:55:31.708Z,98388.47
2022-10-03T22:58:02.306Z,98384.00
2022-10-03T23:00:35.730Z,98378.66
2022-10-03T23:03:32.612Z,98367.09
2022-10-03T23:06:33.708Z,98369.78
2022-10-03T23:09:19.201Z,98384.94
2022-10-03T23:11:49.741Z,98382.56
2022-10-03T23:14:29.126Z,98378.25
2022-10-03T23:17:24.169Z,98375.56
2022-10-03T23:20:33.204Z,98383.19
2022-10-03T23:23:11.633Z,98381.34
2022-10-03T23:26:33.216Z,98374.66
2022-10-03T23:29:12.948Z,98374.34
2022-10-03T23:32:06.889Z,98368.97
2022-10-03T23:34:37.657Z,98363.44
2022-10-03T23:37:14.270Z,98357.13
2022-10-03T23:39:54.497Z,98360.94
2022-10-03T23:42:43.499Z,98363.44
2022-10-03T23:45:16.781Z,98356.81
2022-10-03T23:48:02.614Z,98355.50
2022-10-03T23:50:55.962Z,98349.00
2022-10-03T23:53:34.175Z,98344.19
2022-10-03T23:56:04.702Z,98334.84
2022-10-03T23:58:36.823Z,98327.34
